Time;durP1;ratioP1;P1;durP2;ratioP2;P2;SDS_P1;SDS_P2;PMS_P1;PMS_P2;Temp;Humidity;BMP_temperature;BMP_pressure;BME280_temperature;BME280_humidity;BME280_pressure;Samples;Min_cycle;Max_cycle;Signal;HPM_P1;HPM_P2
2022/04/01 00:00:14;;;;;;;2.00;1.90;;;;;;;;;;4800663;29;20099;-78
2022/04/01 00:02:40;;;;;;;3.17;2.17;;;;;;;;;;4785252;29;20046;-78
2022/04/01 00:05:07;;;;;;;2.97;2.30;;;;;;;;;;4785399;29;20457;-78
2022/04/01 00:07:36;;;;;;;3.60;2.05;;;;;;;;;;4787766;29;20506;-78
2022/04/01 00:10:03;;;;;;;5.40;2.00;;;;;;;;;;4788073;29;20082;-78
2022/04/01 00:12:29;;;;;;;4.10;2.03;;;;;;;;;;4785488;29;20137;-78
2022/04/01 00:14:55;;;;;;;2.80;2.10;;;;;;;;;;4787066;29;20122;-78
2022/04/01 00:17:21;;;;;;;2.63;1.92;;;;;;;;;;4787673;29;20488;-78
2022/04/01 00:19:47;;;;;;;3.35;2.13;;;;;;;;;;4787550;29;20085;-78
2022/04/01 00:22:13;;;;;;;3.58;2.30;;;;;;;;;;4799231;29;20086;-78
2022/04/01 00:24:40;;;;;;;3.58;2.15;;;;;;;;;;4802642;29;20051;-78
2022/04/01 00:27:06;;;;;;;2.65;1.83;;;;;;;;;;4783843;29;20050;-77
2022/04/01 00:29:31;;;;;;;2.38;2.05;;;;;;;;;;4800061;29;20496;-78
2022/04/01 00:32:01;;;;;;;4.18;2.35;;;;;;;;;;4803951;29;20046;-78
2022/04/01 00:34:31;;;;;;;2.30;2.00;;;;;;;;;;4802780;29;20047;-78
2022/04/01 00:36:59;;;;;;;4.18;2.20;;;;;;;;;;4803360;29;20042;-78
2022/04/01 00:39:29;;;;;;;4.22;1.90;;;;;;;;;;4783614;29;20058;-78
2022/04/01 00:41:55;;;;;;;2.92;2.28;;;;;;;;;;4781350;29;20110;-78
2022/04/01 00:44:23;;;;;;;3.83;2.30;;;;;;;;;;4803444;29;20066;-78
2022/04/01 00:46:50;;;;;;;4.63;2.20;;;;;;;;;;4784996;29;20050;-78
2022/04/01 00:49:17;;;;;;;2.55;1.83;;;;;;;;;;4803622;29;20042;-78
2022/04/01 00:51:44;;;;;;;2.75;1.88;;;;;;;;;;4807057;29;20060;-77
2022/04/01 00:54:10;;;;;;;2.03;1.80;;;;;;;;;;4801639;29;20101;-77
2022/04/01 00:56:40;;;;;;;5.70;1.77;;;;;;;;;;4781164;29;20146;-78
2022/04/01 00:59:07;;;;;;;3.40;2.03;;;;;;;;;;4785922;29;20408;-77
2022/04/01 01:01:34;;;;;;;4.22;1.83;;;;;;;;;;4787107;29;20078;-77
2022/04/01 01:04:07;;;;;;;3.50;2.10;;;;;;;;;;4800711;29;20137;-77
2022/04/01 01:06:35;;;;;;;4.90;2.22;;;;;;;;;;4800803;29;20050;-77
2022/04/01 01:09:01;;;;;;;3.22;1.95;;;;;;;;;;4784100;29;20166;-77
2022/04/01 01:11:27;;;;;;;3.20;2.00;;;;;;;;;;4800979;29;20050;-77
2022/04/01 01:13:54;;;;;;;2.83;2.20;;;;;;;;;;4800040;29;20082;-77
2022/04/01 01:16:20;;;;;;;3.88;2.20;;;;;;;;;;4785185;29;20130;-77
2022/04/01 01:18:58;;;;;;;3.10;2.08;;;;;;;;;;4803211;29;20054;-77
2022/04/01 01:21:28;;;;;;;3.15;1.83;;;;;;;;;;4801038;29;20050;-78
2022/04/01 01:24:01;;;;;;;3.80;1.80;;;;;;;;;;4782217;29;20058;-78
2022/04/01 01:26:27;;;;;;;3.85;2.00;;;;;;;;;;4784104;29;20072;-78
2022/04/01 01:28:54;;;;;;;4.00;1.98;;;;;;;;;;4782432;29;20042;-78
2022/04/01 01:31:20;;;;;;;7.15;2.30;;;;;;;;;;4800273;29;20496;-78
2022/04/01 01:33:46;;;;;;;5.47;2.13;;;;;;;;;;4787883;29;20074;-78
2022/04/01 01:36:12;;;;;;;4.45;2.30;;;;;;;;;;4799149;29;20050;-78
2022/04/01 01:38:38;;;;;;;2.58;2.03;;;;;;;;;;4785975;29;20046;-78
2022/04/01 01:41:04;;;;;;;3.72;2.08;;;;;;;;;;4801694;29;20118;-77
2022/04/01 01:43:31;;;;;;;2.35;2.00;;;;;;;;;;4786210;29;20059;-78
2022/04/01 01:45:57;;;;;;;5.22;2.35;;;;;;;;;;4784444;29;20043;-78
2022/04/01 01:48:23;;;;;;;4.07;2.03;;;;;;;;;;4802125;29;20404;-78
2022/04/01 01:56:19;;;;;;;3.65;2.10;;;;;;;;;;4783295;29;20051;-78
2022/04/01 01:58:45;;;;;;;4.03;1.90;;;;;;;;;;4799014;29;20129;-77
2022/04/01 02:01:12;;;;;;;5.05;2.58;;;;;;;;;;4778561;30;20051;-78
2022/04/01 02:03:38;;;;;;;3.22;2.10;;;;;;;;;;4783487;29;20047;-78
2022/04/01 02:06:04;;;;;;;5.72;2.60;;;;;;;;;;4785617;29;20496;-78
2022/04/01 02:08:30;;;;;;;4.50;2.15;;;;;;;;;;4801570;29;20141;-78
2022/04/01 02:10:57;;;;;;;4.45;2.25;;;;;;;;;;4786541;29;20059;-78
2022/04/01 02:13:23;;;;;;;2.13;1.90;;;;;;;;;;4786637;29;20094;-78
2022/04/01 02:15:50;;;;;;;4.57;2.22;;;;;;;;;;4784668;29;20058;-78
2022/04/01 02:18:16;;;;;;;2.92;2.10;;;;;;;;;;4785515;29;20034;-78
2022/04/01 02:20:45;;;;;;;3.67;2.50;;;;;;;;;;4783675;29;20547;-78
2022/04/01 02:23:11;;;;;;;4.68;2.30;;;;;;;;;;4786822;29;20158;-78
2022/04/01 02:25:37;;;;;;;3.45;2.20;;;;;;;;;;4803583;29;20438;-78
2022/04/01 02:28:04;;;;;;;5.93;2.40;;;;;;;;;;4786380;29;20059;-78
2022/04/01 02:30:30;;;;;;;2.72;2.00;;;;;;;;;;4782535;29;20055;-78
2022/04/01 02:32:56;;;;;;;5.25;2.30;;;;;;;;;;4786706;29;20053;-78
2022/04/01 02:35:25;;;;;;;2.30;1.90;;;;;;;;;;4799634;29;20130;-78
2022/04/01 02:37:51;;;;;;;5.15;2.20;;;;;;;;;;4784754;29;20170;-77
2022/04/01 02:40:17;;;;;;;4.68;2.38;;;;;;;;;;4797911;29;20129;-78
2022/04/01 02:42:43;;;;;;;3.10;2.10;;;;;;;;;;4800420;29;20058;-77
2022/04/01 02:45:09;;;;;;;4.75;2.38;;;;;;;;;;4780715;29;20119;-78
2022/04/01 02:47:35;;;;;;;4.22;2.08;;;;;;;;;;4783137;29;20126;-78
2022/04/01 02:50:02;;;;;;;4.57;2.13;;;;;;;;;;4801582;29;20134;-78
2022/04/01 02:52:28;;;;;;;2.58;2.17;;;;;;;;;;4783374;29;20054;-78
2022/04/01 02:54:55;;;;;;;3.40;2.00;;;;;;;;;;4798430;29;20053;-77
2022/04/01 02:57:21;;;;;;;3.53;2.15;;;;;;;;;;4785470;29;20124;-78
2022/04/01 02:59:48;;;;;;;5.10;2.25;;;;;;;;;;4782914;29;20050;-77
2022/04/01 03:02:15;;;;;;;4.43;2.08;;;;;;;;;;4776625;29;20492;-77
2022/04/01 03:04:42;;;;;;;3.47;2.10;;;;;;;;;;4802495;29;20157;-78
2022/04/01 03:07:08;;;;;;;3.67;2.50;;;;;;;;;;4785008;29;20499;-78
2022/04/01 03:09:34;;;;;;;3.17;2.30;;;;;;;;;;4801042;29;20411;-78
2022/04/01 03:12:00;;;;;;;5.93;2.47;;;;;;;;;;4786116;29;20051;-78
2022/04/01 03:14:26;;;;;;;3.88;2.28;;;;;;;;;;4799705;29;20675;-78
2022/04/01 03:16:53;;;;;;;3.13;2.00;;;;;;;;;;4780253;29;20059;-78
2022/04/01 03:19:19;;;;;;;6.50;2.42;;;;;;;;;;4802391;29;20039;-78
2022/04/01 03:21:45;;;;;;;6.30;2.20;;;;;;;;;;4801871;29;20051;-78
2022/04/01 03:24:12;;;;;;;3.97;2.00;;;;;;;;;;4800422;29;20129;-77
2022/04/01 03:26:38;;;;;;;6.82;2.50;;;;;;;;;;4780471;29;20142;-78
2022/04/01 03:29:06;;;;;;;2.58;2.00;;;;;;;;;;4800616;29;20106;-78
2022/04/01 03:31:33;;;;;;;3.60;2.20;;;;;;;;;;4796022;29;20082;-78
2022/04/01 03:34:00;;;;;;;4.97;2.13;;;;;;;;;;4801372;29;20042;-77
2022/04/01 03:36:26;;;;;;;3.22;2.20;;;;;;;;;;4800660;29;20066;-78
2022/04/01 03:38:52;;;;;;;2.63;1.88;;;;;;;;;;4784896;29;20133;-78
2022/04/01 03:41:19;;;;;;;4.72;2.15;;;;;;;;;;4784540;29;20055;-78
2022/04/01 03:43:45;;;;;;;3.58;1.92;;;;;;;;;;4795593;29;20137;-78
2022/04/01 03:46:13;;;;;;;5.90;2.45;;;;;;;;;;4797287;29;20134;-78
2022/04/01 03:48:47;;;;;;;4.95;2.30;;;;;;;;;;4783416;29;20054;-78
2022/04/01 03:51:18;;;;;;;3.90;2.20;;;;;;;;;;4778217;29;20123;-78
2022/04/01 03:53:54;;;;;;;5.40;2.33;;;;;;;;;;4795479;29;20117;-78
2022/04/01 03:56:22;;;;;;;4.93;2.30;;;;;;;;;;4781102;29;20324;-78
2022/04/01 03:58:49;;;;;;;5.00;2.33;;;;;;;;;;4780852;29;20070;-78
2022/04/01 04:01:15;;;;;;;4.30;3.00;;;;;;;;;;4777054;29;20046;-77
2022/04/01 04:03:41;;;;;;;8.02;2.45;;;;;;;;;;4794932;29;20046;-77
2022/04/01 04:06:09;;;;;;;3.83;2.50;;;;;;;;;;4779630;29;20049;-76
2022/04/01 04:08:36;;;;;;;6.53;2.72;;;;;;;;;;4798969;29;20810;-76
2022/04/01 04:11:04;;;;;;;4.68;2.88;;;;;;;;;;4784488;29;20458;-77
2022/04/01 04:13:33;;;;;;;6.93;2.53;;;;;;;;;;4798329;29;20508;-77
2022/04/01 04:16:08;;;;;;;5.30;2.55;;;;;;;;;;4798665;29;20043;-77
2022/04/01 04:18:47;;;;;;;5.43;2.80;;;;;;;;;;4783526;29;20050;-77
2022/04/01 04:21:25;;;;;;;2.97;2.45;;;;;;;;;;4795855;29;20051;-77
2022/04/01 04:23:54;;;;;;;5.05;2.55;;;;;;;;;;4782357;29;20523;-77
2022/04/01 04:26:39;;;;;;;3.80;2.35;;;;;;;;;;4783531;29;20440;-77
2022/04/01 04:29:10;;;;;;;4.25;2.72;;;;;;;;;;4794751;29;20047;-77
2022/04/01 04:31:37;;;;;;;4.95;2.30;;;;;;;;;;4798499;29;20051;-78
2022/04/01 04:34:04;;;;;;;4.30;2.33;;;;;;;;;;4781065;29;20168;-77
2022/04/01 04:36:38;;;;;;;6.70;2.95;;;;;;;;;;4782062;29;20504;-77
2022/04/01 04:39:05;;;;;;;5.40;3.08;;;;;;;;;;4802283;29;20187;-78
2022/04/01 04:41:32;;;;;;;5.03;2.88;;;;;;;;;;4784370;29;20484;-77
2022/04/01 04:43:59;;;;;;;4.72;2.70;;;;;;;;;;4787234;29;20062;-77
2022/04/01 04:46:26;;;;;;;4.57;2.55;;;;;;;;;;4787737;29;21346;-77
2022/04/01 04:48:54;;;;;;;5.80;2.70;;;;;;;;;;4786002;29;20412;-77
2022/04/01 04:51:23;;;;;;;4.60;2.70;;;;;;;;;;4800339;29;20055;-77
2022/04/01 04:53:50;;;;;;;6.63;2.70;;;;;;;;;;4796659;29;20138;-77
2022/04/01 04:56:18;;;;;;;5.15;2.45;;;;;;;;;;4802801;29;20078;-77
2022/04/01 04:58:44;;;;;;;3.33;2.60;;;;;;;;;;4798190;29;20046;-77
2022/04/01 05:01:17;;;;;;;4.40;2.42;;;;;;;;;;4784445;29;20046;-77
2022/04/01 05:03:48;;;;;;;4.57;2.53;;;;;;;;;;4784841;29;20073;-77
2022/04/01 05:06:17;;;;;;;4.18;2.50;;;;;;;;;;4802981;29;20053;-77
2022/04/01 05:09:07;;;;;;;5.60;2.72;;;;;;;;;;4802967;29;20107;-77
2022/04/01 05:11:41;;;;;;;6.28;2.65;;;;;;;;;;4787735;29;20042;-78
2022/04/01 05:14:30;;;;;;;2.92;2.38;;;;;;;;;;4786448;29;20051;-77
2022/04/01 05:17:04;;;;;;;6.53;3.03;;;;;;;;;;4785407;29;20078;-77
2022/04/01 05:19:31;;;;;;;4.00;2.22;;;;;;;;;;4799996;29;20054;-77
2022/04/01 05:22:04;;;;;;;3.50;2.47;;;;;;;;;;4802464;29;20057;-77
2022/04/01 05:24:38;;;;;;;4.53;2.28;;;;;;;;;;4801463;29;20512;-77
2022/04/01 05:27:05;;;;;;;;;;;;;;;;;;4797595;29;20096;-77
2022/04/01 05:29:36;;;;;;;3.58;2.55;;;;;;;;;;4782801;29;19929;-77
2022/04/01 05:32:03;;;;;;;3.65;2.47;;;;;;;;;;4800200;29;20055;-77
2022/04/01 05:34:44;;;;;;;3.67;2.50;;;;;;;;;;4801991;29;20054;-77
2022/04/01 05:37:11;;;;;;;3.83;2.55;;;;;;;;;;4783474;29;20054;-77
2022/04/01 05:39:38;;;;;;;4.22;2.25;;;;;;;;;;4783950;29;20550;-77
2022/04/01 05:42:06;;;;;;;3.50;2.20;;;;;;;;;;4802128;29;20050;-77
2022/04/01 05:44:33;;;;;;;3.40;2.22;;;;;;;;;;4786544;29;20062;-77
2022/04/01 05:47:00;;;;;;;3.38;2.40;;;;;;;;;;4800595;29;20111;-77
2022/04/01 05:49:27;;;;;;;4.78;2.65;;;;;;;;;;4784864;29;20058;-77
2022/04/01 05:51:54;;;;;;;5.22;3.20;;;;;;;;;;4800803;29;20062;-77
2022/04/01 05:54:21;;;;;;;4.85;2.30;;;;;;;;;;4799434;29;20053;-77
2022/04/01 05:56:48;;;;;;;4.55;2.45;;;;;;;;;;4785828;29;20054;-77
2022/04/01 05:59:17;;;;;;;3.95;2.38;;;;;;;;;;4800953;29;20042;-77
2022/04/01 06:01:49;;;;;;;2.90;2.08;;;;;;;;;;4798888;29;20061;-77
2022/04/01 06:04:34;;;;;;;5.20;2.20;;;;;;;;;;4786977;29;20095;-77
2022/04/01 06:07:11;;;;;;;2.97;1.92;;;;;;;;;;4784350;29;20459;-77
2022/04/01 06:09:56;;;;;;;7.85;2.47;;;;;;;;;;4785683;29;20465;-77
2022/04/01 06:12:29;;;;;;;8.20;2.45;;;;;;;;;;4779113;29;20108;-77
2022/04/01 06:15:07;;;;;;;4.75;2.40;;;;;;;;;;4799693;29;20059;-77
2022/04/01 06:17:43;;;;;;;5.88;2.50;;;;;;;;;;4802812;29;20043;-77
2022/04/01 06:20:09;;;;;;;4.70;2.65;;;;;;;;;;4801380;29;20047;-77
2022/04/01 06:22:42;;;;;;;4.95;2.30;;;;;;;;;;4800215;29;20074;-77
2022/04/01 06:25:17;;;;;;;3.93;2.23;;;;;;;;;;4781104;29;20149;-77
2022/04/01 06:27:53;;;;;;;4.68;2.58;;;;;;;;;;4784262;29;20050;-77
2022/04/01 06:30:21;;;;;;;3.25;2.25;;;;;;;;;;4780635;29;20331;-77
2022/04/01 06:32:56;;;;;;;3.97;2.28;;;;;;;;;;4783240;29;20120;-76
2022/04/01 06:35:25;;;;;;;4.80;2.47;;;;;;;;;;4781649;29;20537;-77
2022/04/01 06:38:02;;;;;;;7.45;2.40;;;;;;;;;;4796792;29;20134;-77
2022/04/01 06:40:47;;;;;;;3.55;2.30;;;;;;;;;;4811676;29;20484;-77
2022/04/01 06:43:13;;;;;;;4.35;2.15;;;;;;;;;;4786385;29;20066;-77
2022/04/01 06:45:42;;;;;;;6.15;2.53;;;;;;;;;;4803711;29;20051;-76
2022/04/01 06:48:08;;;;;;;5.75;2.58;;;;;;;;;;4786851;29;20531;-77
2022/04/01 06:50:34;;;;;;;5.60;2.28;;;;;;;;;;4795927;29;20086;-76
2022/04/01 06:53:01;;;;;;;4.57;2.25;;;;;;;;;;4782870;29;20682;-77
2022/04/01 06:55:27;;;;;;;8.82;2.40;;;;;;;;;;4804267;29;20058;-77
2022/04/01 06:57:53;;;;;;;4.28;2.33;;;;;;;;;;4787349;29;20083;-77
2022/04/01 07:00:19;;;;;;;3.60;2.15;;;;;;;;;;4802816;29;20483;-76
2022/04/01 07:02:46;;;;;;;5.63;2.15;;;;;;;;;;4786499;29;20047;-77
2022/04/01 07:05:12;;;;;;;4.18;2.70;;;;;;;;;;4787178;29;20051;-77
2022/04/01 07:07:41;;;;;;;2.58;1.90;;;;;;;;;;4780118;29;20054;-77
2022/04/01 07:10:09;;;;;;;3.88;1.95;;;;;;;;;;4802574;29;20412;-78
2022/04/01 07:12:36;;;;;;;6.38;2.00;;;;;;;;;;4803757;29;20057;-77
2022/04/01 07:15:03;;;;;;;3.42;2.03;;;;;;;;;;4803582;29;20055;-77
2022/04/01 07:17:29;;;;;;;3.05;2.30;;;;;;;;;;4806208;29;20050;-77
2022/04/01 07:19:55;;;;;;;3.50;2.15;;;;;;;;;;4785091;29;20077;-77
2022/04/01 07:22:21;;;;;;;5.65;2.30;;;;;;;;;;4786041;29;20067;-76
2022/04/01 07:24:47;;;;;;;4.07;2.15;;;;;;;;;;4786992;29;20531;-77
2022/04/01 07:27:14;;;;;;;6.35;2.53;;;;;;;;;;4787152;29;20123;-76
2022/04/01 07:29:40;;;;;;;5.32;2.58;;;;;;;;;;4784672;29;20063;-76
2022/04/01 07:34:51;;;;;;;3.83;2.28;;;;;;;;;;4800882;29;20508;-77
2022/04/01 07:37:23;;;;;;;3.92;2.10;;;;;;;;;;4778546;29;20046;-77
2022/04/01 07:39:49;;;;;;;4.82;2.08;;;;;;;;;;4802036;29;20122;-77
2022/04/01 07:42:16;;;;;;;6.15;2.10;;;;;;;;;;4800675;29;20207;-77
2022/04/01 07:44:42;;;;;;;4.25;2.22;;;;;;;;;;4778897;29;20055;-76
2022/04/01 07:47:09;;;;;;;3.90;1.90;;;;;;;;;;4799219;29;20065;-76
2022/04/01 07:49:38;;;;;;;3.65;2.30;;;;;;;;;;4800181;29;20117;-76
2022/04/01 07:52:07;;;;;;;5.10;2.70;;;;;;;;;;4801491;29;20051;-76
2022/04/01 07:54:34;;;;;;;3.13;2.17;;;;;;;;;;4799636;29;20051;-76
2022/04/01 07:57:00;;;;;;;4.28;2.20;;;;;;;;;;4797620;29;20204;-76
2022/04/01 07:59:26;;;;;;;6.47;2.45;;;;;;;;;;4802108;29;20061;-76
2022/04/01 08:01:52;;;;;;;3.58;2.00;;;;;;;;;;4799912;29;20047;-76
2022/04/01 08:04:18;;;;;;;3.38;2.15;;;;;;;;;;4799359;29;20513;-76
2022/04/01 08:06:44;;;;;;;4.78;2.10;;;;;;;;;;4782397;29;20062;-76
2022/04/01 08:09:10;;;;;;;2.78;1.98;;;;;;;;;;4785157;29;20059;-76
2022/04/01 08:11:36;;;;;;;3.58;2.15;;;;;;;;;;4784276;29;20460;-76
2022/04/01 08:14:03;;;;;;;3.60;2.10;;;;;;;;;;4800070;29;20046;-76
2022/04/01 08:16:29;;;;;;;2.65;2.10;;;;;;;;;;4787553;29;20062;-76
2022/04/01 08:18:55;;;;;;;4.65;2.13;;;;;;;;;;4804492;29;20069;-76
2022/04/01 08:21:24;;;;;;;6.57;2.33;;;;;;;;;;4782749;29;20061;-76
2022/04/01 08:23:50;;;;;;;5.30;2.05;;;;;;;;;;4801810;29;20496;-76
2022/04/01 08:26:17;;;;;;;6.40;2.45;;;;;;;;;;4806045;29;20046;-76
2022/04/01 08:28:43;;;;;;;4.57;2.05;;;;;;;;;;4803629;29;20079;-75
2022/04/01 08:31:12;;;;;;;4.30;2.15;;;;;;;;;;4786348;29;20055;-75
2022/04/01 08:33:38;;;;;;;5.80;2.75;;;;;;;;;;4797135;29;20058;-76
2022/04/01 08:36:05;;;;;;;5.82;2.20;;;;;;;;;;4804305;29;20130;-76
2022/04/01 08:38:31;;;;;;;3.35;2.00;;;;;;;;;;4786096;29;20377;-76
2022/04/01 08:40:57;;;;;;;3.53;2.20;;;;;;;;;;4802624;29;20172;-76
2022/04/01 08:43:24;;;;;;;5.30;2.15;;;;;;;;;;4799783;29;20563;-76
2022/04/01 08:45:50;;;;;;;3.47;2.10;;;;;;;;;;4801384;29;20400;-76
2022/04/01 08:48:16;;;;;;;5.53;2.50;;;;;;;;;;4780679;29;20074;-75
2022/04/01 08:50:42;;;;;;;6.00;2.42;;;;;;;;;;4780713;29;20077;-76
2022/04/01 08:53:08;;;;;;;4.68;2.17;;;;;;;;;;4780738;29;20130;-76
2022/04/01 08:55:37;;;;;;;3.58;2.22;;;;;;;;;;4799562;29;20050;-75
2022/04/01 08:58:04;;;;;;;6.07;2.47;;;;;;;;;;4788551;29;20054;-75
2022/04/01 09:00:30;;;;;;;3.20;2.38;;;;;;;;;;4802746;29;20137;-75
2022/04/01 09:03:04;;;;;;;4.38;2.08;;;;;;;;;;4781903;29;20050;-76
2022/04/01 09:05:30;;;;;;;5.05;2.13;;;;;;;;;;4786779;29;20191;-75
2022/04/01 09:08:15;;;;;;;6.72;2.45;;;;;;;;;;4785820;29;20047;-75
2022/04/01 09:10:52;;;;;;;3.28;2.03;;;;;;;;;;4787217;29;20043;-76
2022/04/01 09:13:19;;;;;;;3.47;2.00;;;;;;;;;;4786747;29;20049;-76
2022/04/01 09:15:45;;;;;;;2.75;1.90;;;;;;;;;;4801976;29;20109;-75
2022/04/01 09:18:11;;;;;;;5.32;2.10;;;;;;;;;;4782518;29;20484;-76
2022/04/01 09:20:50;;;;;;;5.70;2.00;;;;;;;;;;4786635;29;20097;-76
2022/04/01 09:23:23;;;;;;;4.75;2.25;;;;;;;;;;4783594;29;20062;-76
2022/04/01 09:25:49;;;;;;;4.65;2.47;;;;;;;;;;4802166;29;20134;-75
2022/04/01 09:28:35;;;;;;;5.30;2.20;;;;;;;;;;4786259;29;20430;-76
2022/04/01 09:31:06;;;;;;;3.80;2.13;;;;;;;;;;4784126;29;20042;-76
2022/04/01 09:33:33;;;;;;;4.22;2.20;;;;;;;;;;4799006;29;20060;-76
2022/04/01 09:36:03;;;;;;;6.70;2.35;;;;;;;;;;4803054;29;20091;-76
2022/04/01 09:38:29;;;;;;;3.83;2.22;;;;;;;;;;4804324;29;20053;-76
2022/04/01 09:41:00;;;;;;;3.97;2.10;;;;;;;;;;4801122;29;20140;-76
2022/04/01 09:43:26;;;;;;;3.40;2.15;;;;;;;;;;4800216;29;20157;-76
2022/04/01 09:45:52;;;;;;;4.22;1.77;;;;;;;;;;4785964;29;20054;-76
2022/04/01 09:48:20;;;;;;;4.72;2.20;;;;;;;;;;4781373;29;20085;-76
2022/04/01 09:50:55;;;;;;;4.88;2.22;;;;;;;;;;4786959;29;20073;-76
2022/04/01 09:53:21;;;;;;;2.33;2.10;;;;;;;;;;4786545;29;20043;-76
2022/04/01 09:55:48;;;;;;;3.65;2.00;;;;;;;;;;4802346;29;20107;-76
2022/04/01 09:58:18;;;;;;;4.05;2.10;;;;;;;;;;4783741;29;20095;-76
2022/04/01 10:00:45;;;;;;;4.95;1.90;;;;;;;;;;4800287;29;20055;-76
2022/04/01 10:03:12;;;;;;;2.50;1.90;;;;;;;;;;4800086;29;20455;-78
2022/04/01 10:05:39;;;;;;;2.45;1.83;;;;;;;;;;4787385;29;20520;-76
2022/04/01 10:08:07;;;;;;;5.63;2.00;;;;;;;;;;4786530;29;20107;-77
2022/04/01 10:10:33;;;;;;;5.85;2.00;;;;;;;;;;4798471;29;20162;-76
2022/04/01 10:13:05;;;;;;;3.53;1.90;;;;;;;;;;4802054;29;20757;-77
2022/04/01 10:15:32;;;;;;;2.80;2.25;;;;;;;;;;4802372;29;20517;-76
2022/04/01 10:17:58;;;;;;;4.35;2.00;;;;;;;;;;4782890;29;20150;-76
2022/04/01 10:20:33;;;;;;;7.93;2.80;;;;;;;;;;4802355;29;20631;-76
2022/04/01 10:23:07;;;;;;;4.32;2.20;;;;;;;;;;4802441;29;20488;-77
2022/04/01 10:25:33;;;;;;;;;;;;;;;;;;4802201;29;20516;-76
2022/04/01 10:28:03;;;;;;;2.20;1.70;;;;;;;;;;4802283;29;19924;-76
2022/04/01 10:30:31;;;;;;;3.33;1.98;;;;;;;;;;4801960;29;20050;-76
2022/04/01 10:32:57;;;;;;;4.93;2.17;;;;;;;;;;4797966;29;20103;-76
2022/04/01 10:35:28;;;;;;;5.45;1.85;;;;;;;;;;4792420;29;20055;-77
2022/04/01 10:37:55;;;;;;;4.00;1.98;;;;;;;;;;4796736;29;20054;-76
2022/04/01 10:40:21;;;;;;;2.47;1.80;;;;;;;;;;4779925;29;20151;-77
2022/04/01 10:42:48;;;;;;;3.83;2.15;;;;;;;;;;4798122;29;20063;-76
2022/04/01 10:45:14;;;;;;;2.20;1.92;;;;;;;;;;4782348;29;20057;-76
2022/04/01 10:53:36;;;;;;;3.45;1.90;;;;;;;;;;4784638;29;20051;-76
2022/04/01 10:56:21;;;;;;;3.63;2.00;;;;;;;;;;4782145;29;20059;-76
2022/04/01 10:59:06;;;;;;;4.10;1.80;;;;;;;;;;4797267;29;20063;-77
2022/04/01 11:01:34;;;;;;;4.72;1.95;;;;;;;;;;4782221;29;20054;-76
2022/04/01 11:04:09;;;;;;;3.17;2.22;;;;;;;;;;4784496;29;20059;-75
2022/04/01 11:06:50;;;;;;;3.95;1.73;;;;;;;;;;4800551;29;20058;-76
2022/04/01 11:09:19;;;;;;;;;;;;;;;;;;4779015;29;20046;-77
2022/04/01 11:12:04;;;;;;;3.15;1.83;;;;;;;;;;4783450;29;19998;-76
2022/04/01 11:14:30;;;;;;;5.43;2.47;;;;;;;;;;4775749;29;20517;-77
2022/04/01 11:17:06;;;;;;;4.97;2.22;;;;;;;;;;4801487;29;20082;-76
2022/04/01 11:19:32;;;;;;;4.88;2.10;;;;;;;;;;4801496;29;20059;-73
2022/04/01 11:21:58;;;;;;;2.25;1.60;;;;;;;;;;4803674;29;20054;-78
2022/04/01 11:24:38;;;;;;;2.67;1.80;;;;;;;;;;4800890;29;20047;-77
2022/04/01 11:27:06;;;;;;;5.13;2.30;;;;;;;;;;4785506;29;20046;-76
2022/04/01 11:29:32;;;;;;;3.63;1.70;;;;;;;;;;4784976;29;20077;-76
2022/04/01 11:32:02;;;;;;;2.42;1.63;;;;;;;;;;4798511;29;20156;-76
2022/04/01 11:34:28;;;;;;;1.92;1.60;;;;;;;;;;4780986;29;20445;-76
2022/04/01 11:36:58;;;;;;;1.92;1.70;;;;;;;;;;4801432;29;20046;-76
2022/04/01 11:39:27;;;;;;;1.83;1.60;;;;;;;;;;4797568;29;20518;-77
2022/04/01 11:41:54;;;;;;;3.42;1.60;;;;;;;;;;4801213;29;20055;-76
2022/04/01 11:44:21;;;;;;;3.85;1.70;;;;;;;;;;4801140;29;20062;-76
2022/04/01 11:46:54;;;;;;;2.25;1.70;;;;;;;;;;4781419;29;20493;-76
2022/04/01 11:49:25;;;;;;;1.77;1.63;;;;;;;;;;4788317;29;20057;-77
2022/04/01 11:51:51;;;;;;;4.00;1.83;;;;;;;;;;4788200;29;20051;-76
2022/04/01 11:54:17;;;;;;;4.40;1.90;;;;;;;;;;4805026;29;20055;-76
2022/04/01 11:56:45;;;;;;;2.25;1.73;;;;;;;;;;4802552;29;20515;-77
2022/04/01 11:59:11;;;;;;;5.10;1.85;;;;;;;;;;4784691;29;20054;-76
2022/04/01 12:02:01;;;;;;;4.18;1.77;;;;;;;;;;4798376;29;20077;-78
2022/04/01 12:04:27;;;;;;;3.22;1.60;;;;;;;;;;4785686;29;20645;-77
2022/04/01 12:09:40;;;;;;;1.65;1.52;;;;;;;;;;4787932;29;20051;-77
2022/04/01 12:12:07;;;;;;;2.65;1.80;;;;;;;;;;4803609;29;20085;-75
2022/04/01 12:14:34;;;;;;;4.35;1.73;;;;;;;;;;4805190;29;20111;-77
2022/04/01 12:17:05;;;;;;;5.72;2.17;;;;;;;;;;4784913;29;20059;-77
2022/04/01 12:19:32;;;;;;;3.10;1.80;;;;;;;;;;4801620;29;20099;-77
2022/04/01 12:22:00;;;;;;;8.20;2.15;;;;;;;;;;4788508;29;20058;-76
2022/04/01 12:24:29;;;;;;;3.95;2.13;;;;;;;;;;4802482;29;20058;-75
2022/04/01 12:26:56;;;;;;;4.45;2.00;;;;;;;;;;4805338;29;20078;-76
2022/04/01 12:29:23;;;;;;;3.33;1.98;;;;;;;;;;4785015;29;20055;-74
2022/04/01 12:31:59;;;;;;;3.45;1.92;;;;;;;;;;4786971;29;20098;-74
2022/04/01 12:34:26;;;;;;;1.98;1.80;;;;;;;;;;4803426;29;20155;-73
2022/04/01 12:36:59;;;;;;;1.73;1.50;;;;;;;;;;4785449;29;20054;-74
2022/04/01 12:39:25;;;;;;;3.33;1.95;;;;;;;;;;4785548;29;20067;-76
2022/04/01 12:41:52;;;;;;;1.70;1.60;;;;;;;;;;4785550;29;20124;-76
2022/04/01 12:44:18;;;;;;;8.88;2.33;;;;;;;;;;4783586;29;20410;-74
2022/04/01 12:46:49;;;;;;;1.77;1.63;;;;;;;;;;4785279;29;20043;-75
2022/04/01 12:49:24;;;;;;;2.75;1.60;;;;;;;;;;4785159;30;20493;-75
2022/04/01 12:51:50;;;;;;;2.22;1.80;;;;;;;;;;4779477;29;20055;-75
2022/04/01 12:54:38;;;;;;;2.72;1.60;;;;;;;;;;4783804;30;20047;-77
2022/04/01 12:57:11;;;;;;;1.50;1.40;;;;;;;;;;4782939;30;20054;-76
2022/04/01 12:59:41;;;;;;;3.28;1.80;;;;;;;;;;4787937;29;20047;-76
2022/04/01 13:02:09;;;;;;;2.55;1.60;;;;;;;;;;4802168;29;20039;-77
2022/04/01 13:04:49;;;;;;;1.98;1.35;;;;;;;;;;4802998;29;20150;-75
2022/04/01 13:07:19;;;;;;;1.50;1.40;;;;;;;;;;4780722;29;20099;-75
2022/04/01 13:09:45;;;;;;;3.05;1.70;;;;;;;;;;4799195;29;20055;-76
2022/04/01 13:12:11;;;;;;;4.70;1.75;;;;;;;;;;4786467;29;20049;-76
2022/04/01 13:14:38;;;;;;;3.65;1.67;;;;;;;;;;4801004;29;20047;-76
2022/04/01 13:17:10;;;;;;;2.42;1.67;;;;;;;;;;4797974;29;20039;-77
2022/04/01 13:19:37;;;;;;;5.07;1.90;;;;;;;;;;4802934;29;20201;-77
2022/04/01 13:22:05;;;;;;;1.77;1.60;;;;;;;;;;4799706;29;20043;-76
2022/04/01 13:24:36;;;;;;;2.20;1.58;;;;;;;;;;4803435;29;20054;-76
2022/04/01 13:27:03;;;;;;;3.03;1.60;;;;;;;;;;4804140;29;20046;-75
2022/04/01 13:29:31;;;;;;;2.30;1.50;;;;;;;;;;4784847;29;20062;-75
2022/04/01 13:31:58;;;;;;;3.45;1.70;;;;;;;;;;4805712;29;20458;-76
2022/04/01 13:34:24;;;;;;;2.42;1.65;;;;;;;;;;4800261;29;20079;-73
2022/04/01 13:36:50;;;;;;;1.77;1.65;;;;;;;;;;4784560;29;20131;-74
2022/04/01 13:39:16;;;;;;;2.03;1.90;;;;;;;;;;4806015;29;20079;-76
2022/04/01 13:41:42;;;;;;;1.75;1.38;;;;;;;;;;4800425;29;20569;-76
2022/04/01 13:44:08;;;;;;;1.73;1.40;;;;;;;;;;4797989;29;20058;-76
2022/04/01 13:46:35;;;;;;;1.73;1.60;;;;;;;;;;4799605;29;20058;-76
2022/04/01 13:49:01;;;;;;;2.10;1.88;;;;;;;;;;4800249;29;20138;-77
2022/04/01 13:51:28;;;;;;;1.85;1.58;;;;;;;;;;4786047;29;20114;-75
2022/04/01 13:53:55;;;;;;;2.35;1.70;;;;;;;;;;4800466;29;20129;-76
2022/04/01 13:56:21;;;;;;;2.08;1.63;;;;;;;;;;4803912;29;20046;-76
2022/04/01 13:58:47;;;;;;;1.70;1.60;;;;;;;;;;4803096;29;20043;-76
2022/04/01 14:01:13;;;;;;;1.80;1.60;;;;;;;;;;4787717;29;20134;-77
2022/04/01 14:03:39;;;;;;;2.25;1.67;;;;;;;;;;4802011;29;20524;-76
2022/04/01 14:06:06;;;;;;;2.83;2.28;;;;;;;;;;4798521;29;20103;-76
2022/04/01 14:08:33;;;;;;;3.03;1.70;;;;;;;;;;4784320;29;20493;-76
2022/04/01 14:10:59;;;;;;;2.05;1.70;;;;;;;;;;4778304;29;20096;-80
2022/04/01 14:13:25;;;;;;;5.40;1.60;;;;;;;;;;4784491;29;20138;-78
2022/04/01 14:15:51;;;;;;;3.75;1.77;;;;;;;;;;4801904;29;20078;-78
2022/04/01 14:18:17;;;;;;;7.80;2.28;;;;;;;;;;4803462;29;20127;-76
2022/04/01 14:20:44;;;;;;;2.40;1.60;;;;;;;;;;4800368;29;20046;-80
2022/04/01 14:23:10;;;;;;;2.05;1.48;;;;;;;;;;4781978;29;20078;-77
2022/04/01 14:25:36;;;;;;;2.85;1.55;;;;;;;;;;4799878;29;20043;-75
2022/04/01 14:28:02;;;;;;;2.85;1.63;;;;;;;;;;4786898;29;20062;-76
2022/04/01 14:30:28;;;;;;;2.60;1.80;;;;;;;;;;4787264;29;20052;-78
2022/04/01 14:32:55;;;;;;;2.50;1.70;;;;;;;;;;4778632;29;20467;-76
2022/04/01 14:35:23;;;;;;;2.72;2.15;;;;;;;;;;4777689;29;20489;-77
2022/04/01 14:37:49;;;;;;;2.78;2.05;;;;;;;;;;4800059;29;20471;-76
2022/04/01 14:40:16;;;;;;;3.75;1.85;;;;;;;;;;4801871;29;20043;-77
2022/04/01 14:42:43;;;;;;;2.92;1.73;;;;;;;;;;4803078;29;20059;-75
2022/04/01 14:45:09;;;;;;;3.15;1.70;;;;;;;;;;4802417;29;20087;-78
2022/04/01 14:47:35;;;;;;;2.95;1.85;;;;;;;;;;4787079;29;20072;-78
2022/04/01 14:50:02;;;;;;;1.83;1.73;;;;;;;;;;4780607;29;20058;-78
2022/04/01 14:52:28;;;;;;;1.95;1.85;;;;;;;;;;4785840;29;20089;-79
2022/04/01 14:54:54;;;;;;;7.20;2.15;;;;;;;;;;4803519;29;20073;-79
2022/04/01 14:57:21;;;;;;;2.63;2.05;;;;;;;;;;4800043;29;20054;-77
2022/04/01 14:59:47;;;;;;;3.80;2.60;;;;;;;;;;4802501;29;20039;-78
2022/04/01 15:02:14;;;;;;;2.88;2.00;;;;;;;;;;4802351;29;20054;-75
2022/04/01 15:04:40;;;;;;;2.45;1.70;;;;;;;;;;4802694;29;20099;-74
2022/04/01 15:07:09;;;;;;;2.30;1.95;;;;;;;;;;4801131;29;20573;-75